Time;durP1;ratioP1;P1;durP2;ratioP2;P2;SDS_P1;SDS_P2;PMS_P1;PMS_P2;Temp;Humidity;BMP_temperature;BMP_pressure;BME280_temperature;BME280_humidity;BME280_pressure;Samples;Min_cycle;Max_cycle;Signal;HPM_P1;HPM_P2
2022/04/26 03:37:25;;;;;;;31.60;3.85;;;;;;;14.95;52.52;100722.31;2105047;28;20043;-73
2022/04/26 03:38:49;;;;;;;31.05;4.38;;;;;;;14.93;52.77;100726.75;2090712;28;20139;-73
2022/04/26 03:40:12;;;;;;;17.08;3.30;;;;;;;14.98;52.17;100729.38;2099903;28;20270;-72
2022/04/26 03:41:37;;;;;;;24.67;3.00;;;;;;;14.99;52.21;100726.72;2088592;28;20083;-72
2022/04/26 03:42:59;;;;;;;35.28;5.15;;;;;;;15.05;52.31;100737.34;2099764;28;20122;-72
2022/04/26 03:44:21;;;;;;;42.20;4.10;;;;;;;15.07;52.29;100732.03;2096246;28;20052;-72
2022/04/26 03:45:44;;;;;;;23.48;3.67;;;;;;;15.05;52.13;100742.66;2098941;28;20519;-72
2022/04/26 03:47:07;;;;;;;34.30;5.95;;;;;;;15.05;51.55;100732.03;2101579;28;20139;-71
2022/04/26 03:48:30;;;;;;;29.60;4.15;;;;;;;15.08;51.97;100732.03;2102257;28;20086;-72
2022/04/26 03:49:51;;;;;;;27.52;4.30;;;;;;;15.16;51.47;100732.00;2109669;28;20128;-72
2022/04/26 03:51:14;;;;;;;44.30;4.68;;;;;;;15.27;51.40;100735.50;2103864;28;20036;-72
2022/04/26 03:52:36;;;;;;;30.55;5.20;;;;;;;15.38;50.96;100733.66;2104087;28;20048;-72
2022/04/26 03:53:58;;;;;;;28.15;4.10;;;;;;;15.45;51.32;100724.75;2093984;28;20048;-72
2022/04/26 03:55:23;;;;;;;32.70;4.25;;;;;;;15.50;51.29;100730.06;2099480;28;20496;-72
2022/04/26 03:56:46;;;;;;;30.65;4.28;;;;;;;15.49;50.79;100736.28;2102596;28;20055;-72
2022/04/26 03:58:09;;;;;;;35.42;4.45;;;;;;;15.49;51.05;100728.31;2102435;28;20523;-73
2022/04/26 03:59:32;;;;;;;21.30;4.20;;;;;;;15.53;50.48;100733.63;2102087;28;20043;-72
2022/04/26 04:00:55;;;;;;;23.92;3.25;;;;;;;15.56;51.04;100732.72;2100894;28;20067;-72
2022/04/26 04:02:16;;;;;;;28.55;3.28;;;;;;;15.62;50.77;100727.34;2099689;28;20062;-72
2022/04/26 04:03:40;;;;;;;30.88;3.55;;;;;;;15.71;50.34;100731.75;2102223;28;20048;-72
2022/04/26 04:05:01;;;;;;;36.88;5.03;;;;;;;15.77;50.42;100729.06;2093069;28;20084;-72
2022/04/26 04:06:24;;;;;;;38.00;4.45;;;;;;;15.81;50.21;100736.13;2093935;28;20071;-72
2022/04/26 04:07:47;;;;;;;26.80;3.17;;;;;;;15.81;50.09;100733.47;2101722;28;20048;-72
2022/04/26 04:09:10;;;;;;;33.67;4.47;;;;;;;15.77;50.53;100727.28;2104884;28;20083;-72
2022/04/26 04:10:34;;;;;;;33.25;4.20;;;;;;;15.78;50.15;100734.38;2096988;28;20142;-72
2022/04/26 04:11:57;;;;;;;27.25;3.75;;;;;;;15.77;50.39;100732.59;2102347;28;20524;-72
2022/04/26 04:13:20;;;;;;;34.95;4.97;;;;;;;15.78;50.43;100739.69;2104791;28;20625;-72
2022/04/26 04:14:42;;;;;;;30.70;3.38;;;;;;;15.77;50.36;100745.91;2104616;28;20175;-72
2022/04/26 04:16:05;;;;;;;33.28;4.03;;;;;;;15.82;50.77;100745.88;2101275;28;20085;-72
2022/04/26 04:17:26;;;;;;;26.45;3.47;;;;;;;15.87;50.52;100744.09;2110738;28;20051;-71
2022/04/26 04:20:29;;;;;;;16.95;2.55;;;;;;;16.13;50.34;100744.78;2104145;28;20071;-71
2022/04/26 04:21:51;;;;;;;13.80;3.10;;;;;;;16.32;50.35;100751.75;2093676;28;20048;-72
2022/04/26 04:23:13;;;;;;;23.20;3.47;;;;;;;16.47;50.30;100753.41;2091053;28;20045;-72
2022/04/26 04:24:36;;;;;;;20.92;2.33;;;;;;;16.58;50.20;100750.63;2098846;28;20199;-71
2022/04/26 04:25:59;;;;;;;12.75;2.15;;;;;;;16.73;50.54;100753.19;2093565;28;20098;-72
2022/04/26 04:27:22;;;;;;;39.78;4.10;;;;;;;16.84;50.49;100759.31;2093945;28;20516;-72
2022/04/26 04:28:43;;;;;;;21.98;2.47;;;;;;;16.89;50.76;100760.13;2093546;28;20143;-71
2022/04/26 04:30:07;;;;;;;22.60;3.22;;;;;;;16.93;50.30;100756.56;2093764;28;20083;-72
2022/04/26 04:31:28;;;;;;;24.83;3.92;;;;;;;16.97;50.60;100760.06;2103714;28;20075;-71
2022/04/26 04:32:51;;;;;;;18.02;2.15;;;;;;;17.05;50.16;100760.88;2098947;28;20538;-72
2022/04/26 04:34:14;;;;;;;15.57;2.25;;;;;;;17.17;50.05;100758.06;2102268;28;20524;-72
2022/04/26 04:35:35;;;;;;;17.83;2.33;;;;;;;17.30;50.24;100766.78;2101205;28;20055;-72
2022/04/26 04:36:58;;;;;;;11.02;2.33;;;;;;;17.43;49.84;100761.28;2096419;28;20388;-71
2022/04/26 04:38:19;;;;;;;26.38;3.67;;;;;;;17.61;50.10;100765.53;2093020;28;20041;-71
2022/04/26 04:39:42;;;;;;;19.55;3.90;;;;;;;17.73;49.78;100769.81;2100145;28;20056;-72
2022/04/26 04:41:06;;;;;;;24.13;4.50;;;;;;;17.82;49.83;100775.94;2092955;28;20045;-72
2022/04/26 04:42:28;;;;;;;15.82;2.70;;;;;;;17.85;49.61;100769.69;2091208;28;20505;-72
2022/04/26 04:43:51;;;;;;;27.63;3.70;;;;;;;17.88;49.47;100767.84;2107810;28;20035;-72
2022/04/26 04:45:14;;;;;;;18.05;3.35;;;;;;;17.93;49.52;100773.09;2110720;28;20139;-72
2022/04/26 04:46:36;;;;;;;26.67;4.05;;;;;;;17.99;49.49;100767.66;2099593;28;20060;-72
2022/04/26 04:47:59;;;;;;;31.50;3.88;;;;;;;18.01;49.19;100765.88;2099586;28;20677;-72
2022/04/26 04:49:23;;;;;;;29.17;4.30;;;;;;;17.95;49.05;100771.31;2093366;28;20098;-72
2022/04/26 04:50:44;;;;;;;19.60;2.67;;;;;;;17.89;49.07;100769.59;2095752;28;20052;-72
2022/04/26 04:52:08;;;;;;;24.92;3.88;;;;;;;17.84;49.17;100767.91;2101283;28;20040;-72
2022/04/26 04:53:30;;;;;;;25.58;3.72;;;;;;;17.79;49.00;100772.41;2093624;28;20099;-72
2022/04/26 04:54:53;;;;;;;25.67;3.35;;;;;;;17.79;49.16;100775.97;2099331;28;20183;-72
2022/04/26 04:56:17;;;;;;;25.13;4.55;;;;;;;17.82;49.01;100769.72;2100879;28;20056;-71
2022/04/26 04:57:40;;;;;;;37.08;4.75;;;;;;;17.85;49.25;100773.19;2101979;28;20044;-73
2022/04/26 04:59:03;;;;;;;30.40;4.38;;;;;;;17.92;48.79;100777.56;2102266;28;20125;-73
2022/04/26 05:00:25;;;;;;;26.73;3.25;;;;;;;18.05;48.73;100783.59;2100951;28;20432;-72
2022/04/26 05:01:48;;;;;;;23.30;3.28;;;;;;;18.16;48.64;100775.44;2093693;28;20060;-72
2022/04/26 05:03:09;;;;;;;32.58;3.38;;;;;;;18.32;48.41;100771.59;2106214;28;20055;-73
2022/04/26 05:04:32;;;;;;;24.90;3.97;;;;;;;18.50;48.18;100776.69;2090619;28;20063;-72
2022/04/26 05:05:55;;;;;;;29.05;4.35;;;;;;;18.64;48.06;100781.84;2084522;28;20049;-72
2022/04/26 05:07:18;;;;;;;24.75;4.32;;;;;;;18.75;47.58;100777.19;2085450;28;20052;-73
2022/04/26 05:08:40;;;;;;;27.60;4.43;;;;;;;18.87;47.81;100786.75;2105789;28;20871;-72
2022/04/26 05:10:04;;;;;;;16.50;3.58;;;;;;;19.04;47.34;100774.84;2103226;28;20052;-72
2022/04/26 05:11:28;;;;;;;27.77;3.40;;;;;;;19.22;47.11;100781.66;2093614;28;20044;-72
2022/04/26 05:12:50;;;;;;;33.53;5.07;;;;;;;19.44;47.12;100779.41;2091403;28;20420;-72
2022/04/26 05:14:12;;;;;;;25.65;3.60;;;;;;;19.70;46.55;100779.78;2093435;28;20116;-72
2022/04/26 05:15:34;;;;;;;26.35;4.80;;;;;;;19.98;46.46;100784.53;2093364;28;20146;-72
2022/04/26 05:16:58;;;;;;;39.63;4.75;;;;;;;20.23;46.30;100788.41;2099774;28;20601;-72
2022/04/26 05:18:20;;;;;;;32.55;5.22;;;;;;;20.48;45.92;100794.97;2093482;28;20127;-73
2022/04/26 05:19:43;;;;;;;25.38;4.95;;;;;;;20.73;45.44;100789.00;2098693;28;20104;-73
2022/04/26 05:21:09;;;;;;;31.33;4.18;;;;;;;21.00;45.56;100790.97;2092753;28;20504;-72
2022/04/26 05:22:30;;;;;;;34.97;4.03;;;;;;;21.25;45.23;100792.09;2093998;28;20515;-72
2022/04/26 05:25:35;;;;;;;29.08;6.78;;;;;;;21.71;44.30;100796.16;2102778;28;20094;-73
2022/04/26 05:26:59;;;;;;;30.23;4.32;;;;;;;21.83;44.22;100796.66;2099709;28;20048;-73
2022/04/26 05:28:21;;;;;;;45.38;5.22;;;;;;;21.96;43.67;100804.38;2100726;28;20036;-72
2022/04/26 05:29:44;;;;;;;22.92;4.97;;;;;;;22.05;43.63;100796.94;2092623;28;20446;-73
2022/04/26 05:31:07;;;;;;;34.08;5.40;;;;;;;22.15;43.64;100802.88;2092643;28;20040;-72
2022/04/26 05:32:30;;;;;;;28.23;4.10;;;;;;;22.30;43.70;100804.22;2098695;28;20048;-73
2022/04/26 05:33:52;;;;;;;34.70;4.88;;;;;;;22.49;43.32;100805.38;2091271;28;20448;-73
2022/04/26 05:35:15;;;;;;;35.92;7.75;;;;;;;22.71;43.66;100806.41;2096880;28;20040;-74
2022/04/26 05:36:38;;;;;;;28.65;4.82;;;;;;;22.85;43.91;100809.56;2091488;28;20043;-73
2022/04/26 05:38:01;;;;;;;23.58;4.30;;;;;;;23.05;44.25;100803.47;2091583;28;20481;-73
2022/04/26 05:39:24;;;;;;;17.48;3.03;;;;;;;23.26;44.04;100801.84;2098997;28;20377;-73
2022/04/26 05:40:47;;;;;;;16.30;2.75;;;;;;;23.42;43.44;100801.25;2089139;28;20053;-73
2022/04/26 05:42:11;;;;;;;20.23;4.20;;;;;;;23.62;42.72;100800.53;2095609;28;20050;-73
2022/04/26 05:43:34;;;;;;;14.07;2.45;;;;;;;23.84;42.52;100792.50;2092912;28;20052;-73
2022/04/26 05:44:58;;;;;;;15.10;2.53;;;;;;;23.99;42.01;100796.41;2100284;28;20123;-73
2022/04/26 05:46:20;;;;;;;11.45;2.20;;;;;;;24.08;41.84;100796.94;2105079;28;20152;-73
2022/04/26 05:47:42;;;;;;;10.30;1.98;;;;;;;24.24;41.76;100805.31;2093075;28;20040;-73
2022/04/26 05:49:05;;;;;;;;;;;;;;;24.35;41.02;100803.06;2095130;28;20109;-73
2022/04/26 05:50:27;;;;;;;;;;;;;;;24.50;41.24;100798.88;2103504;28;19920;-73
2022/04/26 05:51:50;;;;;;;15.20;3.03;;;;;;;24.71;41.54;100799.81;2108977;28;19927;-73
2022/04/26 05:53:13;;;;;;;10.00;1.80;;;;;;;24.91;41.38;100802.56;2105906;28;20071;-73
2022/04/26 05:54:35;;;;;;;16.10;2.33;;;;;;;25.11;40.69;100793.59;2111680;28;20090;-72
2022/04/26 05:55:57;;;;;;;18.27;3.65;;;;;;;25.33;40.63;100794.41;2105706;28;20458;-73
2022/04/26 05:57:20;;;;;;;10.20;2.55;;;;;;;25.54;40.69;100806.06;2105959;28;20052;-74
2022/04/26 05:58:43;;;;;;;14.18;2.20;;;;;;;25.70;40.12;100799.06;2094794;28;20509;-73
2022/04/26 06:00:06;;;;;;;21.05;3.33;;;;;;;25.84;39.97;100799.28;2102189;28;20055;-73
2022/04/26 06:01:35;;;;;;;13.57;2.40;;;;;;;26.00;39.64;100800.31;2100133;28;20071;-73
2022/04/26 06:02:58;;;;;;;16.90;2.05;;;;;;;26.14;39.50;100797.81;2094854;28;20075;-73
2022/04/26 06:04:20;;;;;;;13.35;2.65;;;;;;;26.28;39.72;100801.72;2104404;28;20572;-73
2022/04/26 06:05:43;;;;;;;17.00;2.78;;;;;;;26.43;39.26;100798.28;2096560;28;20147;-74
2022/04/26 06:07:05;;;;;;;19.80;3.50;;;;;;;26.50;38.13;100794.31;2106142;28;20040;-73
2022/04/26 06:08:28;;;;;;;24.48;4.35;;;;;;;26.58;37.94;100795.66;2095114;28;20052;-72
2022/04/26 06:09:53;;;;;;;10.82;2.38;;;;;;;26.65;37.89;100792.69;2102533;28;20044;-74
2022/04/26 06:11:19;;;;;;;18.13;3.20;;;;;;;26.73;37.58;100795.84;2097465;28;20527;-73
2022/04/26 06:12:44;;;;;;;20.48;3.13;;;;;;;26.86;37.71;100789.72;2095180;28;20082;-73
2022/04/26 06:14:10;;;;;;;16.33;2.90;;;;;;;27.00;37.54;100793.59;2101453;28;20523;-73
2022/04/26 06:15:32;;;;;;;22.05;3.50;;;;;;;27.15;36.96;100795.50;2105309;28;20051;-73
2022/04/26 06:16:55;;;;;;;20.67;3.60;;;;;;;27.26;36.77;100801.25;2105270;28;20678;-73
2022/04/26 06:18:18;;;;;;;27.33;4.43;;;;;;;27.28;35.98;100793.91;2108009;28;20089;-74
2022/04/26 06:19:41;;;;;;;24.05;3.60;;;;;;;27.27;36.04;100805.72;2094415;28;20057;-74
2022/04/26 06:21:05;;;;;;;21.23;3.85;;;;;;;27.31;36.28;100801.88;2106794;28;20062;-73
2022/04/26 06:22:28;;;;;;;22.45;3.92;;;;;;;27.29;35.80;100801.97;2095586;28;20082;-74
2022/04/26 06:23:50;;;;;;;42.92;13.05;;;;;;;27.31;36.14;100794.63;2098460;28;20066;-74
2022/04/26 06:25:13;;;;;;;40.30;14.48;;;;;;;27.43;36.17;100794.94;2092145;28;20048;-74
2022/04/26 06:26:36;;;;;;;24.55;6.78;;;;;;;27.55;35.81;100794.31;2092226;28;20049;-74
2022/04/26 06:28:00;;;;;;;91.53;42.45;;;;;;;27.61;34.93;100792.13;2089526;28;20052;-74
2022/04/26 06:29:23;;;;;;;41.03;13.68;;;;;;;27.63;34.67;100797.50;2103009;28;20055;-73
2022/04/26 06:30:45;;;;;;;81.45;30.45;;;;;;;27.64;34.76;100791.06;2100978;28;20048;-74
2022/04/26 06:32:09;;;;;;;19.20;4.60;;;;;;;27.72;34.05;100788.81;2094070;28;20079;-74
2022/04/26 06:33:33;;;;;;;30.25;8.57;;;;;;;27.75;33.68;100789.56;2089378;28;20466;-74
2022/04/26 06:34:55;;;;;;;64.90;27.58;;;;;;;27.79;33.81;100790.25;2105285;28;20079;-73
2022/04/26 06:36:18;;;;;;;23.50;6.10;;;;;;;27.92;33.19;100796.75;2094157;28;20515;-74
2022/04/26 06:37:40;;;;;;;14.70;2.97;;;;;;;27.96;32.47;100786.59;2098473;28;20143;-74
2022/04/26 06:39:04;;;;;;;23.92;3.10;;;;;;;28.01;32.23;100793.53;2099610;28;20602;-75
2022/04/26 06:40:26;;;;;;;31.98;10.32;;;;;;;27.99;32.09;100781.00;2099305;28;20048;-75
2022/04/26 06:41:49;;;;;;;18.42;3.45;;;;;;;27.96;32.79;100786.59;2095685;28;20101;-75
2022/04/26 06:43:13;;;;;;;13.18;2.67;;;;;;;28.03;33.13;100782.56;2099197;28;20062;-74
2022/04/26 06:44:36;;;;;;;18.35;2.90;;;;;;;28.15;32.94;100787.34;2093129;28;20070;-73
2022/04/26 06:45:58;;;;;;;18.35;2.95;;;;;;;28.23;33.02;100782.34;2097587;28;20111;-75
2022/04/26 06:47:21;;;;;;;11.82;2.15;;;;;;;28.14;33.56;100778.31;2092936;28;20094;-74
2022/04/26 06:48:48;;;;;;;9.95;2.20;;;;;;;28.00;33.81;100782.75;2088894;28;20133;-73
2022/04/26 06:50:11;;;;;;;15.25;2.50;;;;;;;27.89;33.87;100775.22;2091247;28;20048;-73
2022/04/26 06:51:38;;;;;;;15.52;2.65;;;;;;;27.83;33.80;100780.13;2104737;28;20054;-73
2022/04/26 06:53:00;;;;;;;16.33;2.35;;;;;;;27.63;34.46;100784.81;2103879;28;20075;-73
2022/04/26 06:54:23;;;;;;;16.15;3.05;;;;;;;27.45;34.48;100780.31;2091434;28;20063;-72
2022/04/26 06:55:46;;;;;;;22.80;4.32;;;;;;;27.36;35.16;100789.84;2093930;28;20141;-73
2022/04/26 06:57:08;;;;;;;17.25;3.22;;;;;;;27.40;35.35;100786.94;2088025;28;20037;-73
2022/04/26 06:58:33;;;;;;;19.83;3.10;;;;;;;27.48;34.61;100782.88;2089905;28;20048;-73
2022/04/26 06:59:56;;;;;;;17.02;3.58;;;;;;;27.48;34.88;100796.44;2097197;28;20103;-73
2022/04/26 07:01:17;;;;;;;17.30;3.00;;;;;;;27.33;34.59;100787.28;2099462;28;20044;-73
2022/04/26 07:02:40;;;;;;;19.25;4.50;;;;;;;27.26;35.32;100794.00;2102296;28;20048;-72
2022/04/26 07:04:03;;;;;;;17.23;4.28;;;;;;;27.24;35.14;100795.88;2100002;28;20056;-73
2022/04/26 07:05:26;;;;;;;16.80;3.35;;;;;;;27.30;35.16;100789.28;2108152;27;20036;-73
2022/04/26 07:06:49;;;;;;;18.98;3.08;;;;;;;27.24;35.15;100790.47;2110165;28;20044;-73
2022/04/26 07:08:11;;;;;;;23.08;2.60;;;;;;;27.22;34.89;100791.53;2096861;28;20045;-73
2022/04/26 07:09:34;;;;;;;16.67;3.28;;;;;;;27.27;34.80;100792.16;2101552;28;20067;-73
2022/04/26 07:10:56;;;;;;;16.83;2.70;;;;;;;27.32;34.79;100790.06;2110281;28;20055;-73
2022/04/26 07:12:19;;;;;;;14.90;2.67;;;;;;;27.33;34.68;100787.28;2111091;28;20044;-73
2022/04/26 07:13:43;;;;;;;14.15;4.15;;;;;;;27.23;34.59;100793.28;2110900;28;20044;-73
2022/04/26 07:15:06;;;;;;;12.93;2.75;;;;;;;26.95;34.15;100799.25;2102686;28;20052;-72
2022/04/26 07:16:28;;;;;;;18.50;3.40;;;;;;;26.84;34.73;100797.09;2108180;28;20061;-73
2022/04/26 07:17:51;;;;;;;12.63;3.40;;;;;;;26.81;34.35;100802.66;2110735;28;20060;-73
2022/04/26 07:19:14;;;;;;;16.02;2.53;;;;;;;26.78;34.38;100802.78;2111046;28;20040;-73
2022/04/26 07:20:37;;;;;;;16.35;3.22;;;;;;;26.77;34.36;100795.63;2102373;28;20055;-73
2022/04/26 07:22:00;;;;;;;32.10;4.32;;;;;;;26.77;34.42;100789.34;2094393;28;20048;-73
2022/04/26 07:23:23;;;;;;;15.50;2.30;;;;;;;26.78;34.64;100800.06;2108587;28;20055;-73
2022/04/26 07:24:46;;;;;;;17.73;2.63;;;;;;;26.77;34.67;100802.88;2102747;28;20435;-73
2022/04/26 07:26:08;;;;;;;14.18;2.35;;;;;;;26.71;34.43;100798.66;2102485;28;20415;-73
2022/04/26 07:27:31;;;;;;;17.05;2.20;;;;;;;26.65;34.45;100806.22;2094262;28;20074;-73
2022/04/26 07:28:55;;;;;;;18.05;3.15;;;;;;;26.67;34.73;100809.72;2100026;28;20251;-73
2022/04/26 07:30:18;;;;;;;20.30;2.10;;;;;;;26.78;34.17;100802.78;2094166;28;20044;-73
2022/04/26 07:31:41;;;;;;;12.65;2.30;;;;;;;27.01;34.12;100803.50;2100013;28;20089;-73
2022/04/26 07:34:42;;;;;;;19.55;2.45;;;;;;;27.37;33.37;100804.28;2104271;28;20059;-74
2022/04/26 07:36:06;;;;;;;13.55;2.38;;;;;;;27.47;33.59;100802.81;2095877;28;20090;-74
2022/04/26 07:37:28;;;;;;;11.05;2.60;;;;;;;27.64;33.25;100807.34;2099967;28;20040;-74
2022/04/26 07:38:51;;;;;;;15.90;2.75;;;;;;;27.92;32.40;100802.16;2102321;28;20036;-74
2022/04/26 07:40:14;;;;;;;14.52;4.38;;;;;;;28.15;32.17;100809.06;2101372;28;20143;-74
2022/04/26 07:41:37;;;;;;;14.80;2.92;;;;;;;28.33;30.96;100804.44;2105237;28;20093;-73
2022/04/26 07:42:59;;;;;;;15.90;3.92;;;;;;;28.45;30.27;100801.00;2102245;28;20058;-74
2022/04/26 07:44:24;;;;;;;11.52;2.08;;;;;;;28.51;29.92;100806.06;2102319;28;20036;-74
2022/04/26 07:45:45;;;;;;;10.57;2.22;;;;;;;28.56;29.96;100803.97;2096751;28;20060;-74
2022/04/26 07:47:08;;;;;;;43.00;19.30;;;;;;;28.64;29.89;100798.06;2099326;28;20067;-74
2022/04/26 07:48:31;;;;;;;16.30;3.38;;;;;;;28.72;29.81;100802.09;2098586;28;20048;-74
2022/04/26 07:49:55;;;;;;;16.70;3.38;;;;;;;28.78;29.94;100801.78;2110997;28;20054;-74
2022/04/26 07:51:19;;;;;;;12.38;2.35;;;;;;;28.83;29.37;100801.50;2096623;28;20044;-74
2022/04/26 07:52:42;;;;;;;14.85;3.35;;;;;;;28.82;29.65;100805.16;2100545;28;20044;-74
2022/04/26 07:54:05;;;;;;;20.88;3.35;;;;;;;28.75;29.54;100799.22;2108192;28;20051;-74
2022/04/26 07:55:28;;;;;;;15.63;3.58;;;;;;;28.70;29.75;100793.16;2104882;28;20044;-74
2022/04/26 07:56:51;;;;;;;16.67;4.28;;;;;;;28.72;30.23;100809.38;2099944;28;20055;-74
2022/04/26 07:58:13;;;;;;;17.23;3.88;;;;;;;28.87;30.67;100797.66;2102865;28;20040;-74
2022/04/26 07:59:37;;;;;;;18.92;3.40;;;;;;;29.07;30.49;100801.88;2093358;28;20041;-74
2022/04/26 08:01:00;;;;;;;14.55;2.85;;;;;;;29.15;30.26;100803.16;2101092;28;20059;-74
2022/04/26 08:02:24;;;;;;;18.48;2.97;;;;;;;29.30;30.16;100801.34;2096616;28;20051;-74
2022/04/26 08:03:47;;;;;;;18.83;2.95;;;;;;;29.50;29.85;100808.31;2094042;28;20048;-74
2022/04/26 08:05:09;;;;;;;16.13;2.30;;;;;;;29.58;29.39;100811.44;2093959;28;20063;-74
2022/04/26 08:06:32;;;;;;;15.70;2.72;;;;;;;29.58;28.97;100812.31;2093801;28;20036;-75
2022/04/26 08:07:54;;;;;;;12.82;2.70;;;;;;;29.54;28.81;100810.72;2085560;28;20476;-74
2022/04/26 08:09:17;;;;;;;18.05;2.88;;;;;;;29.53;28.66;100813.56;2099654;28;20261;-75
2022/04/26 08:10:39;;;;;;;13.15;3.03;;;;;;;29.51;28.87;100813.66;2088188;28;20102;-75
2022/04/26 08:12:01;;;;;;;20.40;2.85;;;;;;;29.45;29.10;100805.88;2090996;28;20565;-75
2022/04/26 08:13:24;;;;;;;15.77;2.95;;;;;;;29.40;29.39;100813.47;2097044;28;20071;-74
2022/04/26 08:14:48;;;;;;;13.45;3.28;;;;;;;29.37;29.24;100807.31;2093916;28;20139;-75
2022/04/26 08:16:11;;;;;;;15.00;2.55;;;;;;;29.22;29.39;100812.69;2099658;28;20153;-74
2022/04/26 08:17:34;;;;;;;15.57;3.38;;;;;;;29.12;29.77;100816.06;2091927;28;20040;-74
2022/04/26 08:18:56;;;;;;;16.05;3.22;;;;;;;29.10;30.11;100816.16;2090453;28;20044;-74
2022/04/26 08:20:19;;;;;;;13.88;2.38;;;;;;;29.15;30.36;100818.59;2099250;28;20434;-75
2022/04/26 08:21:41;;;;;;;20.38;3.78;;;;;;;29.17;30.45;100816.66;2102514;28;20052;-74
2022/04/26 08:23:04;;;;;;;19.02;3.28;;;;;;;29.21;30.28;100815.53;2093612;28;20041;-74
2022/04/26 08:27:47;;;;;;;19.73;4.18;;;;;;;29.06;30.05;100819.16;2103046;28;20606;-74
2022/04/26 08:29:12;;;;;;;18.75;2.92;;;;;;;29.07;30.21;100810.91;2108306;28;20409;-75
2022/04/26 08:30:37;;;;;;;20.45;2.28;;;;;;;29.04;30.69;100816.53;2098978;28;20139;-74
2022/04/26 08:31:59;;;;;;;13.73;2.20;;;;;;;29.03;30.73;100820.22;2094025;28;20461;-74
2022/04/26 08:33:22;;;;;;;14.57;2.08;;;;;;;28.97;30.48;100825.13;2091027;28;20139;-74
2022/04/26 08:34:44;;;;;;;19.95;4.13;;;;;;;28.97;30.32;100825.13;2099242;28;20703;-74
2022/04/26 08:36:07;;;;;;;21.92;3.72;;;;;;;29.02;30.20;100821.16;2093640;28;20567;-75
2022/04/26 08:37:29;;;;;;;14.57;2.50;;;;;;;29.08;29.79;100820.81;2098106;28;20048;-74
2022/04/26 08:38:52;;;;;;;20.23;3.25;;;;;;;29.14;29.49;100825.03;2093222;28;20052;-74
2022/04/26 08:40:16;;;;;;;18.23;3.35;;;;;;;29.28;29.34;100823.19;2093794;28;20062;-74
2022/04/26 08:41:39;;;;;;;20.95;3.17;;;;;;;29.40;29.10;100824.34;2093306;28;20147;-74
2022/04/26 08:43:02;;;;;;;18.40;2.63;;;;;;;29.49;28.42;100823.75;2093509;28;20148;-74
2022/04/26 08:44:27;;;;;;;19.67;2.40;;;;;;;29.50;28.38;100827.34;2093299;28;20045;-74
2022/04/26 08:45:52;;;;;;;16.42;2.40;;;;;;;29.51;27.97;100824.53;2091870;28;20070;-74
2022/04/26 08:52:15;;;;;;;13.80;2.97;;;;;;;29.61;27.76;100828.44;2096348;28;20538;-74
2022/04/26 08:53:39;;;;;;;20.08;2.70;;;;;;;29.66;27.52;100825.44;2101879;28;20044;-74
2022/04/26 08:55:00;;;;;;;16.52;3.03;;;;;;;29.74;27.57;100823.09;2087762;28;20049;-74
2022/04/26 08:56:23;;;;;;;14.98;2.58;;;;;;;29.81;27.29;100827.19;2099312;28;20043;-74
2022/04/26 08:57:44;;;;;;;12.25;1.75;;;;;;;29.85;27.15;100826.03;2096147;28;20050;-74
2022/04/26 08:59:06;;;;;;;;;;;;;;;29.74;26.95;100823.09;2085896;28;20159;-74
2022/04/26 09:00:29;;;;;;;14.85;3.38;;;;;;;29.62;27.36;100821.13;2105657;28;19920;-74
2022/04/26 09:02:18;;;;;;;22.15;4.85;;;;;;;29.63;26.91;100817.44;2104349;28;20044;-74
2022/04/26 09:03:42;;;;;;;17.75;2.42;;;;;;;29.73;27.01;100823.22;2096404;28;20393;-74
2022/04/26 09:05:12;;;;;;;18.15;3.63;;;;;;;29.83;26.43;100816.19;2099873;28;20077;-74
2022/04/26 09:06:40;;;;;;;16.10;2.67;;;;;;;29.86;25.96;100814.16;2104668;28;20040;-74
2022/04/26 09:08:20;;;;;;;13.13;2.60;;;;;;;29.99;26.18;100819.75;2104744;28;20044;-74
2022/04/26 09:09:42;;;;;;;15.05;1.95;;;;;;;30.02;25.84;100817.69;2095824;28;20041;-75
2022/04/26 09:11:21;;;;;;;21.90;2.58;;;;;;;30.01;25.85;100813.19;2093447;28;20497;-75
2022/04/26 09:13:04;;;;;;;19.92;1.95;;;;;;;30.09;25.29;100820.88;2097259;28;20036;-75
2022/04/26 09:14:32;;;;;;;17.58;2.42;;;;;;;30.10;25.47;100814.47;2106222;28;20632;-74
2022/04/26 09:15:56;;;;;;;19.05;3.53;;;;;;;29.94;25.39;100817.28;2095736;28;20040;-75
2022/04/26 09:17:22;;;;;;;16.88;2.33;;;;;;;29.86;25.53;100811.44;2095287;28;20500;-75
2022/04/26 09:18:53;;;;;;;21.92;2.72;;;;;;;29.93;25.83;100801.91;2087031;28;20148;-75
2022/04/26 09:20:33;;;;;;;12.43;2.13;;;;;;;30.10;26.05;100804.44;2088462;28;20055;-74
2022/04/26 09:21:56;;;;;;;21.17;3.03;;;;;;;30.28;25.90;100812.38;2097338;28;20048;-75
2022/04/26 09:23:21;;;;;;;17.88;3.13;;;;;;;30.45;25.59;100812.16;2094619;28;20040;-74
2022/04/26 09:24:57;;;;;;;14.98;2.40;;;;;;;30.46;25.04;100803.00;2087411;28;20045;-74
2022/04/26 09:26:20;;;;;;;23.27;3.53;;;;;;;30.40;25.17;100804.28;2096508;28;20060;-75
2022/04/26 09:27:43;;;;;;;17.60;2.70;;;;;;;30.45;25.08;100804.88;2094972;28;20048;-74
2022/04/26 09:29:06;;;;;;;11.82;2.20;;;;;;;30.56;25.00;100801.44;2095123;28;20057;-74
2022/04/26 09:30:30;;;;;;;12.20;1.80;;;;;;;30.69;24.47;100807.81;2095131;28;20459;-75
2022/04/26 09:32:02;;;;;;;12.55;2.30;;;;;;;30.57;24.14;100808.66;2095222;28;20048;-75
2022/04/26 09:33:43;;;;;;;17.38;2.03;;;;;;;30.43;24.06;100804.09;2096252;28;20097;-74
2022/04/26 09:35:18;;;;;;;13.32;1.95;;;;;;;30.41;24.59;100799.69;2097503;28;20053;-75
2022/04/26 09:36:45;;;;;;;19.13;2.55;;;;;;;30.48;24.80;100795.59;2088789;28;20696;-75
2022/04/26 09:38:10;;;;;;;11.95;1.88;;;;;;;30.47;24.54;100796.56;2093419;28;20124;-75
2022/04/26 09:39:33;;;;;;;21.10;3.10;;;;;;;30.40;24.24;100798.81;2099631;28;20532;-74
2022/04/26 09:40:59;;;;;;;18.10;3.15;;;;;;;30.48;23.99;100801.03;2103565;28;20055;-75
2022/04/26 09:42:30;;;;;;;19.00;2.35;;;;;;;30.52;24.13;100789.00;2095903;28;20488;-74
2022/04/26 09:44:03;;;;;;;15.95;2.33;;;;;;;30.53;24.04;100790.72;2094384;28;20049;-75
2022/04/26 09:45:26;;;;;;;10.52;1.77;;;;;;;30.54;23.83;100792.50;2103392;28;20135;-75
2022/04/26 09:46:52;;;;;;;16.38;3.15;;;;;;;30.50;23.58;100788.22;2094548;28;20484;-75
2022/04/26 09:48:26;;;;;;;18.75;3.20;;;;;;;30.47;23.46;100788.38;2105222;28;20525;-74
2022/04/26 09:49:51;;;;;;;13.23;2.70;;;;;;;30.55;23.79;100785.19;2113335;28;20592;-75
2022/04/26 09:51:14;;;;;;;18.48;3.10;;;;;;;30.57;23.64;100792.31;2103434;28;20050;-75
2022/04/26 09:52:37;;;;;;;18.50;2.80;;;;;;;30.64;24.09;100793.63;2109253;28;20059;-75
2022/04/26 09:53:59;;;;;;;16.35;3.05;;;;;;;30.62;23.84;100779.22;2104094;28;20051;-74
2022/04/26 09:55:22;;;;;;;9.73;2.30;;;;;;;30.61;24.01;100792.94;2103350;28;20070;-74
2022/04/26 09:56:46;;;;;;;16.95;2.90;;;;;;;30.65;24.14;100780.88;2097443;28;20135;-74
2022/04/26 09:58:09;;;;;;;18.80;3.92;;;;;;;30.72;24.04;100784.94;2103254;28;20051;-75
2022/04/26 09:59:39;;;;;;;15.52;2.65;;;;;;;30.80;23.91;100794.31;2103113;28;20139;-75
2022/04/26 10:01:04;;;;;;;17.33;2.13;;;;;;;30.73;23.38;100784.81;2104078;28;20115;-75
2022/04/26 10:02:31;;;;;;;15.60;2.47;;;;;;;30.66;23.67;100790.78;2105849;28;20162;-75
2022/04/26 10:04:02;;;;;;;16.45;2.38;;;;;;;30.68;23.41;100791.56;2103952;28;20546;-75
2022/04/26 10:05:28;;;;;;;17.92;2.53;;;;;;;30.73;23.63;100782.09;2102699;28;20397;-75
2022/04/26 10:06:53;;;;;;;18.80;2.67;;;;;;;30.73;23.49;100779.38;2102585;28;20772;-74
2022/04/26 10:08:18;;;;;;;14.32;2.70;;;;;;;30.64;24.01;100781.84;2103586;28;20052;-74
2022/04/26 10:09:41;;;;;;;13.02;2.28;;;;;;;30.54;23.83;100784.31;2103325;28;20787;-75
2022/04/26 10:11:05;;;;;;;19.40;3.00;;;;;;;30.48;23.85;100784.69;2097161;28;20044;-74
2022/04/26 10:12:28;;;;;;;15.00;3.42;;;;;;;30.42;23.89;100779.66;2094986;28;20053;-75
2022/04/26 10:13:51;;;;;;;13.55;2.20;;;;;;;30.37;23.96;100776.38;2100529;28;20063;-75
2022/04/26 10:15:14;;;;;;;20.67;3.00;;;;;;;30.38;23.96;100783.56;2094596;28;20044;-74